Time,TemperatureF,DewpointF,PressureIn,WindDirection,WindDirectionDegrees,WindSpeedMPH,WindSpeedGustMPH,Humidity,HourlyPrecipIn,Conditions,Clouds,dailyrainin,SolarRadiationWatts/m^2,SoftwareType,DateUTC
2013-03-24 00:00:00,35.2,23.1,29.94,NE,50,0.0,0.0,61,0.00,SCT,SCT,0.00,0.0,WeatherDisplay:10.37,2013-03-24 04:00:00,
2013-03-24 00:05:00,35.2,23.1,29.94,NE,48,0.0,3.0,61,0.00,SCT,SCT,0.00,0.0,WeatherDisplay:10.37,2013-03-24 04:05:00,
2013-03-24 00:10:00,34.9,22.8,29.93,NE,42,0.0,1.0,61,0.00,SCT,SCT,0.00,0.0,WeatherDisplay:10.37,2013-03-24 04:10:00,
2013-03-24 00:20:00,34.7,23.0,29.93,NE,41,0.0,0.0,62,0.00,SCT,SCT,0.00,0.0,WeatherDisplay:10.37,2013-03-24 04:20:00,
2013-03-24 00:25:00,34.5,23.2,29.93,NE,49,1.0,3.0,63,0.00,SCT,SCT,0.00,0.0,WeatherDisplay:10.37,2013-03-24 04:25:00,
2013-03-24 00:30:00,34.5,23.2,29.94,NE,52,0.0,3.0,63,0.00,SCT,SCT,0.00,0.0,WeatherDisplay:10.37,2013-03-24 04:30:00,
2013-03-24 00:35:00,34.3,23.4,29.94,NE,54,1.0,6.0,64,0.00,SCT,SCT,0.00,0.0,WeatherDisplay:10.37,2013-03-24 04:35:00,
2013-03-24 00:40:00,34.3,23.4,29.94,NE,41,1.0,2.0,64,0.00,SCT,SCT,0.00,0.0,WeatherDisplay:10.37,2013-03-24 04:40:00,
2013-03-24 00:45:00,34.3,23.4,29.94,NE,43,0.0,2.0,64,0.00,SCT,SCT,0.00,0.0,WeatherDisplay:10.37,2013-03-24 04:45:00,
2013-03-24 00:50:00,34.3,23.8,29.94,NE,52,0.0,3.0,65,0.00,SCT,SCT,0.00,0.0,WeatherDisplay:10.37,2013-03-24 04:50:00,
2013-03-24 00:59:00,34.3,23.8,29.94,ENE,60,0.0,0.0,65,0.00,SCT,SCT,0.00,0.0,WeatherDisplay:10.37,2013-03-24 04:59:00,
2013-03-24 01:04:00,34.3,24.2,29.93,ENE,63,0.0,0.0,66,0.00,SCT,SCT,0.00,0.0,WeatherDisplay:10.37,2013-03-24 05:04:00,
2013-03-24 01:09:00,34.3,24.2,29.92,NE,55,0.0,3.0,66,0.00,SCT,SCT,0.00,0.0,WeatherDisplay:10.37,2013-03-24 05:09:00,
2013-03-24 01:14:00,34.3,24.5,29.92,NE,49,0.0,2.0,67,0.00,SCT,SCT,0.00,0.0,WeatherDisplay:10.37,2013-03-24 05:14:00,
2013-03-24 01:19:00,34.2,24.3,29.92,NE,43,2.0,6.0,67,0.00,OVC,SCT,0.00,0.0,WeatherDisplay:10.37,2013-03-24 05:19:00,
2013-03-24 01:30:00,34.3,24.8,29.91,NE,49,0.0,6.0,68,0.00,OVC,SCT,0.00,0.0,WeatherDisplay:10.37,2013-03-24 05:30:00,
2013-03-24 01:40:00,34.3,25.2,29.91,NE,49,0.0,9.0,69,0.00,OVC,SCT,0.00,0.0,WeatherDisplay:10.37,2013-03-24 05:40:00,
2013-03-24 01:50:00,34.3,25.2,29.91,ENE,64,0.0,6.0,69,0.00,OVC,SCT,0.00,0.0,WeatherDisplay:10.37,2013-03-24 05:50:00,
2013-03-24 02:00:00,34.3,25.2,29.91,NE,50,1.0,3.0,69,0.00,OVC,SCT,0.00,0.0,WeatherDisplay:10.37,2013-03-24 06:00:00,
2013-03-24 02:05:00,34.3,25.2,29.91,NE,54,0.0,0.0,69,0.00,BKN,SCT,0.00,0.0,WeatherDisplay:10.37,2013-03-24 06:05:00,
2013-03-24 02:10:00,34.3,25.2,29.91,NE,55,2.0,4.0,69,0.00,BKN,SCT,0.00,0.0,WeatherDisplay:10.37,2013-03-24 06:10:00,
2013-03-24 02:15:00,34.3,25.6,29.91,ENE,72,2.0,6.0,70,0.00,BKN,SCT,0.00,0.0,WeatherDisplay:10.37,2013-03-24 06:15:00,
2013-03-24 02:20:00,34.3,25.9,29.91,ENE,65,1.0,7.0,71,0.00,BKN,SCT,0.00,0.0,WeatherDisplay:10.37,2013-03-24 06:20:00,
2013-03-24 02:25:00,34.3,25.6,29.91,ENE,59,2.0,6.0,70,0.00,BKN,SCT,0.00,0.0,WeatherDisplay:10.37,2013-03-24 06:25:00,
2013-03-24 02:30:00,34.3,25.9,29.92,NE,56,3.0,8.0,71,0.00,BKN,SCT,0.00,0.0,WeatherDisplay:10.37,2013-03-24 06:30:00,
2013-03-24 02:35:00,34.2,25.7,29.91,ENE,72,1.0,8.0,71,0.00,BKN,SCT,0.00,0.0,WeatherDisplay:10.37,2013-03-24 06:35:00,
2013-03-24 02:40:00,34.2,25.7,29.91,ENE,78,1.0,7.0,71,0.00,BKN,SCT,0.00,0.0,WeatherDisplay:10.37,2013-03-24 06:40:00,
2013-03-24 02:45:00,34.2,25.7,29.92,ENE,69,1.0,6.0,71,0.00,BKN,SCT,0.00,0.0,WeatherDisplay:10.37,2013-03-24 06:45:00,
2013-03-24 02:50:00,34.2,25.7,29.92,ENE,77,1.0,5.0,71,0.00,BKN,SCT,0.00,0.0,WeatherDisplay:10.37,2013-03-24 06:50:00,
2013-03-24 02:55:00,34.0,25.9,29.92,ENE,72,2.0,8.0,72,0.00,BKN,SCT,0.00,0.0,WeatherDisplay:10.37,2013-03-24 06:55:00,
2013-03-24 03:00:00,34.0,25.9,29.92,ENE,68,0.0,3.0,72,0.00,BKN,SCT,0.00,0.0,WeatherDisplay:10.37,2013-03-24 07:00:00,
2013-03-24 03:05:00,34.0,25.9,29.92,ENE,59,1.0,5.0,72,0.00,BKN,SCT,0.00,0.0,WeatherDisplay:10.37,2013-03-24 07:05:00,
2013-03-24 03:10:00,33.9,25.8,29.92,NE,56,0.0,5.0,72,0.00,BKN,SCT,0.00,0.0,WeatherDisplay:10.37,2013-03-24 07:10:00,
2013-03-24 03:15:00,33.8,25.7,29.92,NE,50,0.0,5.0,72,0.00,BKN,SCT,0.00,0.0,WeatherDisplay:10.37,2013-03-24 07:15:00,
2013-03-24 03:20:00,33.8,26.1,29.92,NE,55,2.0,6.0,73,0.00,OVC,SCT,0.00,0.0,WeatherDisplay:10.37,2013-03-24 07:20:00,
2013-03-24 03:25:00,33.8,26.1,29.92,NE,51,0.0,5.0,73,0.00,OVC,SCT,0.00,0.0,WeatherDisplay:10.37,2013-03-24 07:25:00,
2013-03-24 03:30:00,33.8,26.1,29.92,NE,45,0.0,2.0,73,0.00,OVC,SCT,0.00,0.0,WeatherDisplay:10.37,2013-03-24 07:30:00,
2013-03-24 03:35:00,33.8,26.1,29.92,ENE,59,2.0,6.0,73,0.00,OVC,SCT,0.00,0.0,WeatherDisplay:10.37,2013-03-24 07:35:00,
2013-03-24 03:40:00,33.6,25.9,29.91,NE,53,5.0,10.0,73,0.00,OVC,SCT,0.00,0.0,WeatherDisplay:10.37,2013-03-24 07:40:00,
2013-03-24 03:45:00,33.7,25.9,29.91,ENE,58,2.0,7.0,73,0.00,OVC,SCT,0.00,0.0,WeatherDisplay:10.37,2013-03-24 07:45:00,
2013-03-24 03:50:00,33.8,26.1,29.91,ENE,65,3.0,7.0,73,0.00,OVC,SCT,0.00,0.0,WeatherDisplay:10.37,2013-03-24 07:50:00,
2013-03-24 03:55:00,33.6,25.9,29.91,ENE,58,6.0,9.0,73,0.00,OVC,SCT,0.00,0.0,WeatherDisplay:10.37,2013-03-24 07:55:00,
2013-03-24 04:00:00,33.6,25.9,29.91,ENE,58,1.0,6.0,73,0.00,OVC,SCT,0.00,0.0,WeatherDisplay:10.37,2013-03-24 08:00:00,
2013-03-24 04:05:00,33.6,25.9,29.91,East,83,1.0,6.0,73,0.00,OVC,SCT,0.00,0.0,WeatherDisplay:10.37,2013-03-24 08:05:00,
2013-03-24 04:10:00,33.6,25.9,29.91,East,81,0.0,6.0,73,0.00,OVC,SCT,0.00,0.0,WeatherDisplay:10.37,2013-03-24 08:10:00,
2013-03-24 04:20:00,33.6,25.9,29.90,ENE,69,0.0,2.0,73,0.00,OVC,SCT,0.00,0.0,WeatherDisplay:10.37,2013-03-24 08:20:00,
2013-03-24 04:25:00,33.6,25.9,29.90,NE,52,1.0,6.0,73,0.00,OVC,SCT,0.00,0.0,WeatherDisplay:10.37,2013-03-24 08:25:00,
2013-03-24 04:30:00,33.6,25.9,29.89,ENE,67,5.0,10.0,73,0.00,OVC,SCT,0.00,0.0,WeatherDisplay:10.37,2013-03-24 08:30:00,
2013-03-24 04:35:00,33.6,25.6,29.89,ENE,67,1.0,6.0,72,0.00,OVC,SCT,0.00,0.0,WeatherDisplay:10.37,2013-03-24 08:35:00,
2013-03-24 04:40:00,33.6,25.6,29.89,ENE,68,5.0,6.0,72,0.00,OVC,SCT,0.00,0.0,WeatherDisplay:10.37,2013-03-24 08:40:00,
2013-03-24 04:50:00,33.6,25.6,29.89,NE,49,1.0,6.0,72,0.00,OVC,SCT,0.00,0.0,WeatherDisplay:10.37,2013-03-24 08:50:00,
2013-03-24 04:59:00,33.6,25.6,29.88,ENE,59,0.0,6.0,72,0.00,OVC,SCT,0.00,0.0,WeatherDisplay:10.37,2013-03-24 08:59:00,
2013-03-24 05:04:00,33.6,25.6,29.88,ENE,59,2.0,6.0,72,0.00,OVC,SCT,0.00,0.0,WeatherDisplay:10.37,2013-03-24 09:04:00,
2013-03-24 05:09:00,33.6,25.6,29.88,ENE,64,1.0,3.0,72,0.00,OVC,SCT,0.00,0.0,WeatherDisplay:10.37,2013-03-24 09:09:00,
2013-03-24 05:14:00,33.6,25.6,29.88,ENE,60,2.0,7.0,72,0.00,OVC,SCT,0.00,0.0,WeatherDisplay:10.37,2013-03-24 09:14:00,
2013-03-24 05:19:00,33.6,25.2,29.88,ENE,65,0.0,4.0,71,0.00,OVC,SCT,0.00,0.0,WeatherDisplay:10.37,2013-03-24 09:19:00,
2013-03-24 05:24:00,33.6,25.2,29.88,NE,53,0.0,6.0,71,0.00,OVC,SCT,0.00,0.0,WeatherDisplay:10.37,2013-03-24 09:24:00,
2013-03-24 05:29:00,33.6,25.2,29.88,NE,46,0.0,3.0,71,0.00,OVC,SCT,0.00,0.0,WeatherDisplay:10.37,2013-03-24 09:29:00,
2013-03-24 05:34:00,33.6,25.2,29.87,NE,41,2.0,7.0,71,0.00,OVC,SCT,0.00,0.0,WeatherDisplay:10.37,2013-03-24 09:34:00,
2013-03-24 05:40:00,33.6,25.2,29.87,NE,48,2.0,9.0,71,0.00,OVC,SCT,0.00,0.0,WeatherDisplay:10.37,2013-03-24 09:40:00,
2013-03-24 05:45:00,33.6,25.2,29.87,NE,51,0.0,6.0,71,0.00,OVC,SCT,0.00,0.0,WeatherDisplay:10.37,2013-03-24 09:45:00,
2013-03-24 05:50:00,33.6,25.2,29.87,NE,47,0.0,3.0,71,0.00,OVC,SCT,0.00,0.0,WeatherDisplay:10.37,2013-03-24 09:50:00,
2013-03-24 05:55:00,33.6,25.2,29.87,NE,45,0.0,3.0,71,0.00,OVC,SCT,0.00,0.0,WeatherDisplay:10.37,2013-03-24 09:55:00,
2013-03-24 06:00:00,33.6,25.2,29.87,NE,49,0.0,0.0,71,0.00,OVC,SCT,0.00,0.0,WeatherDisplay:10.37,2013-03-24 10:00:00,
2013-03-24 06:05:00,33.6,25.2,29.87,NE,42,0.0,0.0,71,0.00,OVC,SCT,0.00,0.0,WeatherDisplay:10.37,2013-03-24 10:05:00,
2013-03-24 06:10:00,33.6,25.2,29.87,NE,37,0.0,0.0,71,0.00,OVC,SCT,0.00,0.0,WeatherDisplay:10.37,2013-03-24 10:10:00,
2013-03-24 06:15:00,33.6,25.2,29.87,NNE,17,0.0,0.0,71,0.00,OVC,SCT,0.00,0.0,WeatherDisplay:10.37,2013-03-24 10:15:00,
2013-03-24 06:20:00,33.6,25.2,29.87,North,6,0.0,5.0,71,0.00,-SN,SCT,0.00,0.0,WeatherDisplay:10.37,2013-03-24 10:20:00,
2013-03-24 06:25:00,33.5,25.1,29.86,NNW,347,3.0,5.0,71,0.00,-SN,SCT,0.00,0.0,WeatherDisplay:10.37,2013-03-24 10:25:00,
2013-03-24 06:30:00,33.3,25.2,29.85,North,2,6.0,8.0,72,0.00,-SN,SCT,0.00,0.0,WeatherDisplay:10.37,2013-03-24 10:30:00,
2013-03-24 06:35:00,32.9,24.9,29.85,NNE,15,5.0,9.0,72,0.00,-SN,SCT,0.00,0.0,WeatherDisplay:10.37,2013-03-24 10:35:00,
2013-03-24 06:40:00,32.7,25.3,29.85,NNE,24,1.0,8.0,74,0.00,-SN,SCT,0.00,0.0,WeatherDisplay:10.37,2013-03-24 10:40:00,
2013-03-24 06:45:00,32.5,25.2,29.85,NNE,26,2.0,8.0,74,0.00,-SN,SCT,0.00,0.0,WeatherDisplay:10.37,2013-03-24 10:45:00,
2013-03-24 06:50:00,32.4,25.0,29.85,NNE,14,3.0,7.0,74,0.00,-SN,SCT,0.00,0.0,WeatherDisplay:10.37,2013-03-24 10:50:00,
2013-03-24 06:55:00,32.2,25.1,29.85,NNE,17,2.0,7.0,75,0.00,-SN,SCT,0.00,0.0,WeatherDisplay:10.37,2013-03-24 10:55:00,
2013-03-24 07:00:00,32.2,25.1,29.85,NNE,22,3.0,5.0,75,0.00,-SN,SCT,0.00,0.0,WeatherDisplay:10.37,2013-03-24 11:00:00,
2013-03-24 07:05:00,32.2,25.1,29.85,NNE,27,0.0,6.0,75,0.00,-SN,SCT,0.00,0.0,WeatherDisplay:10.37,2013-03-24 11:05:00,
2013-03-24 07:10:00,32.2,25.5,29.85,NNE,21,1.0,6.0,76,0.00,-SN,SCT,0.00,0.0,WeatherDisplay:10.37,2013-03-24 11:10:00,
2013-03-24 07:20:00,31.8,25.1,29.85,NE,35,1.0,7.0,76,0.00,-SN,SCT,0.00,0.0,WeatherDisplay:10.37,2013-03-24 11:20:00,
2013-03-24 07:25:00,31.8,25.1,29.85,NNE,31,0.0,7.0,76,0.00,-SN,SCT,0.00,0.0,WeatherDisplay:10.37,2013-03-24 11:25:00,
2013-03-24 07:30:00,31.8,25.1,29.85,NE,37,1.0,8.0,76,0.00,-SN,SCT,0.00,0.0,WeatherDisplay:10.37,2013-03-24 11:30:00,
2013-03-24 07:35:00,31.6,25.3,29.84,NE,34,5.0,7.0,77,0.00,-SN,SCT,0.00,0.0,WeatherDisplay:10.37,2013-03-24 11:35:00,
2013-03-24 07:40:00,31.6,25.2,29.84,NNE,33,3.0,8.0,77,0.00,-SN,SCT,0.00,0.0,WeatherDisplay:10.37,2013-03-24 11:40:00,
2013-03-24 07:45:00,31.3,25.2,29.83,NE,52,6.0,8.0,78,0.00,-SN,SCT,0.00,0.0,WeatherDisplay:10.37,2013-03-24 11:45:00,
2013-03-24 07:50:00,31.1,25.3,29.83,NE,55,2.0,8.0,79,0.00,-SN,SCT,0.00,0.0,WeatherDisplay:10.37,2013-03-24 11:50:00,
2013-03-24 07:55:00,30.7,25.3,29.83,NE,49,2.0,9.0,80,0.00,-SN,SCT,0.00,0.0,WeatherDisplay:10.37,2013-03-24 11:55:00,
2013-03-24 08:00:00,30.7,25.6,29.83,NNE,22,10.0,14.0,81,0.00,-SN,SCT,0.00,0.0,WeatherDisplay:10.37,2013-03-24 12:00:00,
2013-03-24 08:05:00,30.6,25.5,29.83,North,351,12.0,14.0,81,0.00,-SN,SCT,0.00,0.0,WeatherDisplay:10.37,2013-03-24 12:05:00,
2013-03-24 08:10:00,30.6,25.7,29.83,North,1,0.0,14.0,82,0.00,-SN,SCT,0.00,0.0,WeatherDisplay:10.37,2013-03-24 12:10:00,
2013-03-24 08:20:00,30.4,25.8,29.82,NNE,17,7.0,14.0,83,0.00,-SN,SCT,0.00,0.0,WeatherDisplay:10.37,2013-03-24 12:20:00,
2013-03-24 08:25:00,30.3,25.8,29.82,NNE,24,2.0,14.0,83,0.00,-SN,SCT,0.00,0.0,WeatherDisplay:10.37,2013-03-24 12:25:00,
2013-03-24 08:30:00,30.2,25.7,29.81,NE,37,5.0,14.0,83,0.00,-SN,SCT,0.00,0.0,WeatherDisplay:10.37,2013-03-24 12:30:00,
2013-03-24 08:40:00,30.0,25.8,29.82,NE,47,2.0,14.0,84,0.00,-SN,SCT,0.00,0.0,WeatherDisplay:10.37,2013-03-24 12:40:00,
2013-03-24 08:45:00,30.0,25.8,29.82,NNE,33,3.0,14.0,84,0.00,-SN,SCT,0.00,0.0,WeatherDisplay:10.37,2013-03-24 12:45:00,
2013-03-24 08:50:00,30.2,25.9,29.81,NNE,33,6.0,9.0,84,0.00,-SN,SCT,0.00,0.0,WeatherDisplay:10.37,2013-03-24 12:50:00,
2013-03-24 08:59:00,30.0,26.1,29.80,NE,50,1.0,10.0,85,0.00,-SN,SCT,0.00,0.0,WeatherDisplay:10.37,2013-03-24 12:59:00,
2013-03-24 09:09:00,30.2,26.2,29.80,NE,42,3.0,9.0,85,0.00,-SN,SCT,0.00,0.0,WeatherDisplay:10.37,2013-03-24 13:09:00,
2013-03-24 09:19:00,30.4,26.7,29.80,NE,50,2.0,7.0,86,0.00,-SN,SCT,0.00,0.0,WeatherDisplay:10.37,2013-03-24 13:19:00,
2013-03-24 09:24:00,30.6,26.9,29.80,NE,54,2.0,7.0,86,0.00,-SN,SCT,0.00,0.0,WeatherDisplay:10.37,2013-03-24 13:24:00,
2013-03-24 09:30:00,30.7,27.0,29.80,NE,48,7.0,14.0,86,0.00,-SN,SCT,0.00,0.0,WeatherDisplay:10.37,2013-03-24 13:30:00,
2013-03-24 09:40:00,30.6,26.9,29.78,NE,44,5.0,14.0,86,0.00,-SN,SCT,0.00,0.0,WeatherDisplay:10.37,2013-03-24 13:40:00,
2013-03-24 09:45:00,30.7,27.0,29.78,NE,39,10.0,14.0,86,0.00,-SN,SCT,0.00,0.0,WeatherDisplay:10.37,2013-03-24 13:45:00,
2013-03-24 09:50:00,30.7,27.0,29.78,NNE,31,7.0,14.0,86,0.00,-SN,SCT,0.00,0.0,WeatherDisplay:10.37,2013-03-24 13:50:00,
2013-03-24 10:00:00,30.9,26.9,29.77,North,2,9.0,14.0,85,0.00,-SN,SCT,0.00,0.0,WeatherDisplay:10.37,2013-03-24 14:00:00,
2013-03-24 10:05:00,31.1,27.1,29.76,NNE,17,2.0,14.0,85,0.00,-SN,SCT,0.00,0.0,WeatherDisplay:10.37,2013-03-24 14:05:00,
2013-03-24 10:10:00,31.3,27.3,29.76,NNE,26,3.0,14.0,85,0.00,-SN,SCT,0.00,0.0,WeatherDisplay:10.37,2013-03-24 14:10:00,
2013-03-24 10:15:00,31.5,27.5,29.76,NE,36,2.0,10.0,85,0.00,-SN,SCT,0.00,0.0,WeatherDisplay:10.37,2013-03-24 14:15:00,
2013-03-24 10:20:00,31.6,27.4,29.75,NE,43,7.0,9.0,84,0.00,OVC,SCT,0.00,0.0,WeatherDisplay:10.37,2013-03-24 14:20:00,
2013-03-24 10:25:00,31.8,27.5,29.76,NNE,26,8.0,9.0,84,0.00,OVC,SCT,0.00,0.0,WeatherDisplay:10.37,2013-03-24 14:25:00,
2013-03-24 10:30:00,32.2,27.9,29.75,NNE,32,3.0,7.0,84,0.00,OVC,SCT,0.00,0.0,WeatherDisplay:10.37,2013-03-24 14:30:00,
2013-03-24 10:35:00,32.5,28.2,29.75,NE,40,5.0,8.0,84,0.00,OVC,SCT,0.00,0.0,WeatherDisplay:10.37,2013-03-24 14:35:00,
2013-03-24 10:40:00,32.9,28.3,29.75,NE,36,5.0,9.0,83,0.00,OVC,SCT,0.00,0.0,WeatherDisplay:10.37,2013-03-24 14:40:00,
2013-03-24 10:45:00,33.3,28.7,29.75,NE,39,5.0,7.0,83,0.00,OVC,SCT,0.00,0.0,WeatherDisplay:10.37,2013-03-24 14:45:00,
2013-03-24 10:50:00,33.4,28.5,29.75,NE,52,1.0,8.0,82,0.00,OVC,SCT,0.00,0.0,WeatherDisplay:10.37,2013-03-24 14:50:00,
2013-03-24 10:55:00,33.4,28.5,29.75,NE,54,6.0,8.0,82,0.00,OVC,SCT,0.00,0.0,WeatherDisplay:10.37,2013-03-24 14:55:00,
2013-03-24 11:00:00,33.1,28.2,29.73,ENE,59,6.0,11.0,82,0.00,OVC,SCT,0.00,0.0,WeatherDisplay:10.37,2013-03-24 15:00:00,
2013-03-24 11:05:00,33.2,28.3,29.73,ENE,62,6.0,8.0,82,0.00,OVC,SCT,0.00,0.0,WeatherDisplay:10.37,2013-03-24 15:05:00,
2013-03-24 11:10:00,33.4,28.5,29.73,ENE,67,5.0,7.0,82,0.00,OVC,SCT,0.00,0.0,WeatherDisplay:10.37,2013-03-24 15:10:00,
2013-03-24 11:15:00,33.6,28.7,29.73,ENE,73,3.0,7.0,82,0.00,OVC,SCT,0.00,0.0,WeatherDisplay:10.37,2013-03-24 15:15:00,
2013-03-24 11:20:00,33.7,28.8,29.72,East,82,6.0,10.0,82,0.00,OVC,SCT,0.00,0.0,WeatherDisplay:10.37,2013-03-24 15:20:00,
2013-03-24 11:25:00,34.2,28.9,29.72,ENE,73,5.0,12.0,81,0.00,OVC,SCT,0.00,0.0,WeatherDisplay:10.37,2013-03-24 15:25:00,
2013-03-24 11:30:00,34.3,29.1,29.72,ENE,65,8.0,9.0,81,0.00,OVC,SCT,0.00,0.0,WeatherDisplay:10.37,2013-03-24 15:30:00,
2013-03-24 11:35:00,34.3,28.8,29.72,ENE,74,2.0,8.0,80,0.00,OVC,SCT,0.00,0.0,WeatherDisplay:10.37,2013-03-24 15:35:00,
2013-03-24 11:40:00,34.3,28.8,29.72,East,81,7.0,12.0,80,0.00,OVC,SCT,0.00,0.0,WeatherDisplay:10.37,2013-03-24 15:40:00,
2013-03-24 11:50:00,34.4,28.9,29.71,ENE,63,6.0,15.0,80,0.00,OVC,SCT,0.00,0.0,WeatherDisplay:10.37,2013-03-24 15:50:00,
2013-03-24 11:55:00,34.5,29.0,29.72,ENE,67,6.0,12.0,80,0.00,OVC,SCT,0.00,0.0,WeatherDisplay:10.37,2013-03-24 15:55:00,
2013-03-24 12:05:00,34.5,29.0,29.71,ENE,71,5.0,11.0,80,0.00,OVC,SCT,0.00,0.0,WeatherDisplay:10.37,2013-03-24 16:05:00,
2013-03-24 12:10:00,34.3,28.8,29.72,East,83,2.0,12.0,80,0.00,OVC,SCT,0.00,0.0,WeatherDisplay:10.37,2013-03-24 16:10:00,
2013-03-24 12:20:00,34.3,28.7,29.72,East,85,5.0,9.0,80,0.00,OVC,SCT,0.00,0.0,WeatherDisplay:10.37,2013-03-24 16:20:00,
2013-03-24 12:30:00,34.3,28.8,29.71,ENE,63,2.0,7.0,80,0.00,OVC,SCT,0.00,0.0,WeatherDisplay:10.37,2013-03-24 16:30:00,
2013-03-24 12:35:00,34.3,28.8,29.71,ENE,66,5.0,9.0,80,0.00,OVC,SCT,0.00,0.0,WeatherDisplay:10.37,2013-03-24 16:35:00,
2013-03-24 12:40:00,34.2,28.6,29.71,ENE,67,6.0,8.0,80,0.00,OVC,SCT,0.00,0.0,WeatherDisplay:10.37,2013-03-24 16:40:00,
2013-03-24 12:45:00,34.2,28.6,29.70,ENE,59,1.0,8.0,80,0.00,OVC,SCT,0.00,0.0,WeatherDisplay:10.37,2013-03-24 16:45:00,
2013-03-24 12:50:00,34.0,28.5,29.69,NE,56,0.0,6.0,80,0.00,OVC,SCT,0.00,0.0,WeatherDisplay:10.37,2013-03-24 16:50:00,
2013-03-24 12:59:00,34.0,28.8,29.69,ENE,72,6.0,8.0,81,0.00,OVC,SCT,0.00,0.0,WeatherDisplay:10.37,2013-03-24 16:59:00,
2013-03-24 13:04:00,33.9,28.7,29.69,ENE,78,3.0,10.0,81,0.00,OVC,SCT,0.00,0.0,WeatherDisplay:10.37,2013-03-24 17:04:00,
2013-03-24 13:09:00,33.8,28.6,29.69,ENE,75,3.0,10.0,81,0.00,OVC,SCT,0.00,0.0,WeatherDisplay:10.37,2013-03-24 17:09:00,
2013-03-24 13:14:00,34.0,28.7,29.69,ENE,71,2.0,10.0,81,0.00,OVC,SCT,0.00,0.0,WeatherDisplay:10.37,2013-03-24 17:14:00,
2013-03-24 13:19:00,34.0,28.8,29.69,ENE,67,2.0,8.0,81,0.00,OVC,SCT,0.00,0.0,WeatherDisplay:10.37,2013-03-24 17:19:00,
2013-03-24 13:24:00,34.0,28.8,29.68,ENE,75,7.0,12.0,81,0.00,OVC,SCT,0.00,0.0,WeatherDisplay:10.37,2013-03-24 17:24:00,
2013-03-24 13:30:00,34.2,28.9,29.67,ENE,64,6.0,9.0,81,0.00,OVC,SCT,0.00,0.0,WeatherDisplay:10.37,2013-03-24 17:30:00,
2013-03-24 13:40:00,34.3,29.4,29.66,ENE,70,5.0,8.0,82,0.00,OVC,SCT,0.00,0.0,WeatherDisplay:10.37,2013-03-24 17:40:00,
2013-03-24 13:45:00,34.3,29.4,29.65,ENE,61,5.0,8.0,82,0.00,OVC,SCT,0.00,0.0,WeatherDisplay:10.37,2013-03-24 17:45:00,
2013-03-24 13:50:00,34.3,29.4,29.64,NE,51,8.0,12.0,82,0.00,OVC,SCT,0.00,0.0,WeatherDisplay:10.37,2013-03-24 17:50:00,
2013-03-24 13:55:00,34.3,29.4,29.64,NE,56,6.0,12.0,82,0.00,OVC,SCT,0.00,0.0,WeatherDisplay:10.37,2013-03-24 17:55:00,
2013-03-24 14:00:00,34.3,29.4,29.63,NE,55,6.0,10.0,82,0.00,OVC,SCT,0.00,0.0,WeatherDisplay:10.37,2013-03-24 18:00:00,
2013-03-24 14:05:00,34.3,29.4,29.63,NE,45,6.0,13.0,82,0.00,OVC,SCT,0.00,0.0,WeatherDisplay:10.37,2013-03-24 18:05:00,
2013-03-24 14:10:00,34.3,29.4,29.62,NE,51,5.0,9.0,82,0.00,OVC,SCT,0.00,0.0,WeatherDisplay:10.37,2013-03-24 18:10:00,
2013-03-24 14:15:00,34.5,29.8,29.60,NE,55,10.0,15.0,83,0.00,OVC,SCT,0.00,0.0,WeatherDisplay:10.37,2013-03-24 18:15:00,
2013-03-24 14:20:00,34.5,29.6,29.58,NE,50,10.0,12.0,82,0.00,OVC,SCT,0.00,0.0,WeatherDisplay:10.37,2013-03-24 18:20:00,
2013-03-24 14:25:00,34.7,30.1,29.58,NE,55,8.0,14.0,83,0.00,OVC,SCT,0.00,0.0,WeatherDisplay:10.37,2013-03-24 18:25:00,
2013-03-24 14:30:00,34.9,30.2,29.58,ENE,66,7.0,12.0,83,0.00,OVC,SCT,0.00,0.0,WeatherDisplay:10.37,2013-03-24 18:30:00,
2013-03-24 14:40:00,34.9,29.9,29.57,NE,55,9.0,12.0,82,0.00,OVC,SCT,0.00,0.0,WeatherDisplay:10.37,2013-03-24 18:40:00,
2013-03-24 14:45:00,34.9,29.9,29.57,East,80,8.0,13.0,82,0.00,OVC,SCT,0.00,0.0,WeatherDisplay:10.37,2013-03-24 18:45:00,
2013-03-24 14:50:00,35.1,30.1,29.57,ENE,72,7.0,14.0,82,0.00,OVC,SCT,0.00,0.0,WeatherDisplay:10.37,2013-03-24 18:50:00,
2013-03-24 15:00:00,35.4,30.5,29.54,NE,56,7.0,14.0,82,0.00,OVC,SCT,0.00,0.0,WeatherDisplay:10.37,2013-03-24 19:00:00,
2013-03-24 15:05:00,35.4,30.5,29.55,ENE,68,6.0,9.0,82,0.00,OVC,SCT,0.00,0.0,WeatherDisplay:10.37,2013-03-24 19:05:00,
2013-03-24 15:10:00,35.4,30.2,29.57,ENE,72,5.0,9.0,81,0.00,OVC,SCT,0.00,0.0,WeatherDisplay:10.37,2013-03-24 19:10:00,
2013-03-24 15:20:00,35.4,30.2,29.58,ENE,76,3.0,14.0,81,0.00,OVC,SCT,0.00,0.0,WeatherDisplay:10.37,2013-03-24 19:20:00,
2013-03-24 15:30:00,35.2,29.7,29.56,ENE,66,8.0,13.0,80,0.00,OVC,SCT,0.00,0.0,WeatherDisplay:10.37,2013-03-24 19:30:00,
2013-03-24 15:35:00,35.2,29.6,29.56,East,80,7.0,14.0,80,0.00,OVC,SCT,0.00,0.0,WeatherDisplay:10.37,2013-03-24 19:35:00,
2013-03-24 15:40:00,35.2,29.7,29.55,ENE,71,5.0,13.0,80,0.00,OVC,SCT,0.00,0.0,WeatherDisplay:10.37,2013-03-24 19:40:00,
2013-03-24 15:45:00,35.2,29.7,29.54,ENE,58,7.0,13.0,80,0.00,OVC,SCT,0.00,0.0,WeatherDisplay:10.37,2013-03-24 19:45:00,
2013-03-24 15:50:00,34.9,29.3,29.54,NE,52,1.0,12.0,80,0.00,OVC,SCT,0.00,0.0,WeatherDisplay:10.37,2013-03-24 19:50:00,
2013-03-24 15:55:00,34.9,29.3,29.54,ENE,58,9.0,15.0,80,0.00,OVC,SCT,0.00,0.0,WeatherDisplay:10.37,2013-03-24 19:55:00,
2013-03-24 16:00:00,34.5,29.0,29.54,NE,52,7.0,10.0,80,0.00,OVC,SCT,0.00,0.0,WeatherDisplay:10.37,2013-03-24 20:00:00,
2013-03-24 16:05:00,34.3,28.8,29.54,NE,53,2.0,8.0,80,0.00,OVC,SCT,0.00,0.0,WeatherDisplay:10.37,2013-03-24 20:05:00,
2013-03-24 16:10:00,34.3,28.8,29.53,ENE,59,2.0,9.0,80,0.00,OVC,SCT,0.00,0.0,WeatherDisplay:10.37,2013-03-24 20:10:00,
2013-03-24 16:15:00,34.3,28.8,29.53,NE,54,5.0,12.0,80,0.00,OVC,SCT,0.00,0.0,WeatherDisplay:10.37,2013-03-24 20:15:00,
2013-03-24 16:20:00,34.3,29.1,29.52,ENE,59,6.0,10.0,81,0.00,OVC,SCT,0.00,0.0,WeatherDisplay:10.37,2013-03-24 20:20:00,
2013-03-24 16:30:00,34.1,28.9,29.52,ENE,61,10.0,13.0,81,0.00,OVC,SCT,0.00,0.0,WeatherDisplay:10.37,2013-03-24 20:30:00,
2013-03-24 16:40:00,33.8,28.6,29.50,East,85,7.0,17.0,81,0.00,OVC,SCT,0.00,0.0,WeatherDisplay:10.37,2013-03-24 20:40:00,
2013-03-24 16:45:00,33.8,28.6,29.50,East,83,7.0,10.0,81,0.00,OVC,SCT,0.00,0.0,WeatherDisplay:10.37,2013-03-24 20:45:00,
2013-03-24 16:50:00,33.7,28.8,29.51,ENE,72,8.0,10.0,82,0.00,OVC,SCT,0.00,0.0,WeatherDisplay:10.37,2013-03-24 20:50:00,
2013-03-24 16:59:00,33.6,28.7,29.51,ENE,67,7.0,13.0,82,0.00,OVC,SCT,0.00,0.0,WeatherDisplay:10.37,2013-03-24 20:59:00,
2013-03-24 17:04:00,33.6,28.7,29.51,ENE,70,5.0,8.0,82,0.00,OVC,SCT,0.00,0.0,WeatherDisplay:10.37,2013-03-24 21:04:00,
2013-03-24 17:09:00,33.6,28.7,29.52,ENE,76,7.0,9.0,82,0.00,OVC,SCT,0.00,0.0,WeatherDisplay:10.37,2013-03-24 21:09:00,
2013-03-24 17:19:00,33.6,28.4,29.53,ENE,78,7.0,11.0,81,0.00,-SN,SCT,0.00,0.0,WeatherDisplay:10.37,2013-03-24 21:19:00,
2013-03-24 17:24:00,33.5,28.2,29.54,ENE,75,1.0,9.0,81,0.00,-SN,SCT,0.00,0.0,WeatherDisplay:10.37,2013-03-24 21:24:00,
2013-03-24 17:30:00,33.4,28.2,29.54,ENE,78,2.0,6.0,81,0.00,-SN,SCT,0.00,0.0,WeatherDisplay:10.37,2013-03-24 21:30:00,
2013-03-24 17:40:00,33.1,28.2,29.53,East,89,1.0,7.0,82,0.00,-SN,SCT,0.00,0.0,WeatherDisplay:10.37,2013-03-24 21:40:00,
2013-03-24 17:50:00,32.7,27.8,29.52,East,82,8.0,11.0,82,0.00,-SN,SCT,0.00,0.0,WeatherDisplay:10.37,2013-03-24 21:50:00,
2013-03-24 17:55:00,32.4,27.8,29.50,ENE,72,7.0,14.0,83,0.00,-SN,SCT,0.00,0.0,WeatherDisplay:10.37,2013-03-24 21:55:00,
2013-03-24 18:00:00,32.4,28.1,29.51,ENE,69,7.0,12.0,84,0.00,-SN,SCT,0.00,0.0,WeatherDisplay:10.37,2013-03-24 22:00:00,
2013-03-24 18:05:00,32.2,27.9,29.51,ENE,69,7.0,14.0,84,0.00,OVC,SCT,0.00,0.0,WeatherDisplay:10.37,2013-03-24 22:05:00,
2013-03-24 18:10:00,32.2,27.9,29.51,NE,56,3.0,14.0,84,0.00,OVC,SCT,0.00,0.0,WeatherDisplay:10.37,2013-03-24 22:10:00,
2013-03-24 18:15:00,32.2,27.9,29.51,NE,54,5.0,14.0,84,0.00,OVC,SCT,0.00,0.0,WeatherDisplay:10.37,2013-03-24 22:15:00,
2013-03-24 18:20:00,32.1,28.1,29.51,NE,52,6.0,14.0,85,0.00,OVC,SCT,0.00,0.0,WeatherDisplay:10.37,2013-03-24 22:20:00,
2013-03-24 18:25:00,31.8,27.8,29.51,NE,50,6.0,14.0,85,0.00,OVC,SCT,0.00,0.1,WeatherDisplay:10.37,2013-03-24 22:25:00,
2013-03-24 18:30:00,31.8,27.8,29.51,NE,45,7.0,9.0,85,0.00,OVC,SCT,0.00,0.1,WeatherDisplay:10.37,2013-03-24 22:30:00,
2013-03-24 18:40:00,31.6,27.9,29.51,NE,39,2.0,8.0,86,0.00,OVC,SCT,0.00,0.3,WeatherDisplay:10.37,2013-03-24 22:40:00,
2013-03-24 18:50:00,31.3,27.6,29.49,NE,55,7.0,10.0,86,0.00,OVC,SCT,0.00,0.7,WeatherDisplay:10.37,2013-03-24 22:50:00,
2013-03-24 19:00:00,31.1,27.4,29.51,NE,44,0.0,7.0,86,0.00,OVC,SCT,0.00,1.1,WeatherDisplay:10.37,2013-03-24 23:00:00,
2013-03-24 19:05:00,31.1,27.7,29.51,NE,43,2.0,7.0,87,0.00,CLR,SCT,0.00,1.2,WeatherDisplay:10.37,2013-03-24 23:05:00,
2013-03-24 19:10:00,30.9,27.5,29.51,NE,46,1.0,6.0,87,0.00,CLR,SCT,0.00,1.5,WeatherDisplay:10.37,2013-03-24 23:10:00,
2013-03-24 19:15:00,30.9,27.5,29.51,NE,44,3.0,10.0,87,0.00,CLR,SCT,0.00,1.6,WeatherDisplay:10.37,2013-03-24 23:15:00,
2013-03-24 19:20:00,30.7,27.3,29.51,NE,46,2.0,8.0,87,0.00,CLR,SCT,0.00,2.0,WeatherDisplay:10.37,2013-03-24 23:20:00,
2013-03-24 19:30:00,30.7,27.6,29.51,ENE,61,1.0,6.0,88,0.00,CLR,SCT,0.00,2.2,WeatherDisplay:10.37,2013-03-24 23:30:00,
2013-03-24 19:40:00,30.7,27.6,29.52,NE,53,1.0,9.0,88,0.00,CLR,SCT,0.00,2.5,WeatherDisplay:10.37,2013-03-24 23:40:00,
2013-03-24 19:50:00,30.7,27.6,29.52,NE,49,2.0,9.0,88,0.00,CLR,SCT,0.00,2.7,WeatherDisplay:10.37,2013-03-24 23:50:00,
2013-03-24 19:55:00,30.6,27.4,29.52,ENE,61,5.0,8.0,88,0.00,CLR,SCT,0.00,3.7,WeatherDisplay:10.37,2013-03-24 23:55:00,
2013-03-24 20:00:00,30.4,27.3,29.51,ENE,63,1.0,7.0,88,0.00,CLR,SCT,0.00,3.8,WeatherDisplay:10.37,2013-03-25 00:00:00,
2013-03-24 20:05:00,30.2,27.1,29.52,ENE,62,0.0,9.0,88,0.00, +SN,SCT,0.00,4.5,WeatherDisplay:10.37,2013-03-25 00:05:00,
2013-03-24 20:10:00,30.2,27.1,29.52,NE,47,1.0,6.0,88,0.00, +SN,SCT,0.00,4.6,WeatherDisplay:10.37,2013-03-25 00:10:00,
2013-03-24 20:15:00,30.0,26.9,29.52,NE,40,2.0,9.0,88,0.00, +SN,SCT,0.00,5.3,WeatherDisplay:10.37,2013-03-25 00:15:00,
2013-03-24 20:20:00,30.0,26.9,29.51,NE,38,2.0,9.0,88,0.00, +SN,SCT,0.00,5.5,WeatherDisplay:10.37,2013-03-25 00:20:00,
2013-03-24 20:30:00,29.9,27.1,29.52,NE,38,5.0,8.0,89,0.00, +SN,SCT,0.00,6.4,WeatherDisplay:10.37,2013-03-25 00:30:00,
2013-03-24 20:40:00,29.7,26.8,29.52,NNE,32,3.0,12.0,89,0.00,CLR,SCT,0.00,0.0,WeatherDisplay:10.37,2013-03-25 00:40:00,
2013-03-24 20:45:00,29.5,26.6,29.52,NE,34,6.0,14.0,89,0.00,CLR,SCT,0.00,0.0,WeatherDisplay:10.37,2013-03-25 00:45:00,
2013-03-24 20:50:00,29.5,26.6,29.53,NE,36,3.0,11.0,89,0.00,OVC,SCT,0.00,0.0,WeatherDisplay:10.37,2013-03-25 00:50:00,
2013-03-24 20:55:00,29.3,26.5,29.53,NNE,32,7.0,13.0,89,0.00,OVC,SCT,0.00,0.0,WeatherDisplay:10.37,2013-03-25 00:55:00,
2013-03-24 21:00:00,29.1,26.3,29.53,NE,36,3.0,13.0,89,0.00,OVC,SCT,0.00,0.0,WeatherDisplay:10.37,2013-03-25 01:00:00,
2013-03-24 21:05:00,29.1,26.3,29.53,NE,44,5.0,12.0,89,0.00,OVC,SCT,0.00,0.0,WeatherDisplay:10.37,2013-03-25 01:05:00,
2013-03-24 21:11:00,29.1,26.3,29.53,NNE,31,1.0,6.0,89,0.00,OVC,SCT,0.00,0.0,WeatherDisplay:10.37,2013-03-25 01:11:00,
2013-03-24 21:16:00,29.1,26.3,29.53,NNE,26,1.0,7.0,89,0.00,OVC,SCT,0.00,0.0,WeatherDisplay:10.37,2013-03-25 01:16:00,
2013-03-24 21:21:00,29.1,26.3,29.53,NNE,26,3.0,12.0,89,0.00,-SN,SCT,0.00,0.0,WeatherDisplay:10.37,2013-03-25 01:21:00,
2013-03-24 21:36:00,28.9,26.1,29.53,NNE,32,5.0,10.0,89,0.00,-SN,SCT,0.00,0.0,WeatherDisplay:10.37,2013-03-25 01:36:00,
2013-03-24 21:46:00,28.8,25.9,29.53,NNE,32,3.0,9.0,89,0.00,-SN,SCT,0.00,0.0,WeatherDisplay:10.37,2013-03-25 01:46:00,
2013-03-24 21:56:00,28.8,25.9,29.54,NE,40,6.0,9.0,89,0.00,-SN,SCT,0.00,0.0,WeatherDisplay:10.37,2013-03-25 01:56:00,
2013-03-24 22:01:00,28.8,25.9,29.54,NE,43,5.0,8.0,89,0.00,-SN,SCT,0.00,0.0,WeatherDisplay:10.37,2013-03-25 02:01:00,
2013-03-24 22:11:00,28.8,25.9,29.54,NE,41,6.0,13.0,89,0.00,-SN,SCT,0.00,0.0,WeatherDisplay:10.37,2013-03-25 02:11:00,
2013-03-24 22:21:00,28.9,26.1,29.54,NE,37,3.0,8.0,89,0.00,-SN,SCT,0.00,0.0,WeatherDisplay:10.37,2013-03-25 02:21:00,
2013-03-24 22:26:00,28.9,26.1,29.54,NE,36,9.0,14.0,89,0.00,-SN,SCT,0.00,0.0,WeatherDisplay:10.37,2013-03-25 02:26:00,
2013-03-24 22:31:00,28.9,26.0,29.54,NE,37,6.0,14.0,89,0.00,-SN,SCT,0.00,0.0,WeatherDisplay:10.37,2013-03-25 02:31:00,
2013-03-24 22:36:00,28.8,25.9,29.54,NE,35,1.0,11.0,89,0.00,-SN,SCT,0.00,0.0,WeatherDisplay:10.37,2013-03-25 02:36:00,
2013-03-24 22:46:00,28.8,25.9,29.54,NNE,30,5.0,10.0,89,0.00,-SN,SCT,0.00,0.0,WeatherDisplay:10.37,2013-03-25 02:46:00,
2013-03-24 22:51:00,28.8,25.9,29.53,NNE,30,6.0,14.0,89,0.00,-SN,SCT,0.00,0.0,WeatherDisplay:10.37,2013-03-25 02:51:00,
2013-03-24 23:01:00,28.8,25.9,29.54,NNE,28,2.0,9.0,89,0.00,-SN,SCT,0.00,0.0,WeatherDisplay:10.37,2013-03-25 03:01:00,
2013-03-24 23:06:00,28.8,25.9,29.54,NNE,27,5.0,9.0,89,0.00,-SN,SCT,0.00,0.0,WeatherDisplay:10.37,2013-03-25 03:06:00,
2013-03-24 23:26:00,28.9,26.1,29.54,NNE,32,5.0,9.0,89,0.00,-SN,SCT,0.00,0.0,WeatherDisplay:10.37,2013-03-25 03:26:00,
2013-03-24 23:31:00,28.9,26.1,29.53,NNE,29,8.0,11.0,89,0.00,-SN,SCT,0.00,0.0,WeatherDisplay:10.37,2013-03-25 03:31:00,
2013-03-24 23:36:00,28.9,26.1,29.53,NNE,29,8.0,13.0,89,0.00,-SN,SCT,0.00,0.0,WeatherDisplay:10.37,2013-03-25 03:36:00,
2013-03-24 23:41:00,29.0,26.1,29.53,NNE,27,5.0,13.0,89,0.00,-SN,SCT,0.00,0.0,WeatherDisplay:10.37,2013-03-25 03:41:00,
2013-03-24 23:46:00,29.1,26.3,29.52,NNE,23,3.0,21.0,89,0.00,-SN,SCT,0.00,0.0,WeatherDisplay:10.37,2013-03-25 03:46:00,
2013-03-24 23:51:00,29.1,26.2,29.53,NNE,21,2.0,8.0,89,0.00,-SN,SCT,0.00,0.0,WeatherDisplay:10.37,2013-03-25 03:51:00,
2013-03-24 23:56:00,28.9,26.1,29.53,NNE,25,6.0,11.0,89,0.00,-SN,SCT,0.00,0.0,WeatherDisplay:10.37,2013-03-25 03:56:00,